Salt, Spain
Current Conditions -  °F | °C
As of 6:30 PM on Friday 21 Nov 2014 (Local Time) from LEGE Reporting Station
Few Clouds Few Clouds  
Wind Chill: 59°   Ceiling: Unl
Heat Index: 59°   Visibility: 6mi
Dew Point: 57°   Wind: 3mph
Humidity: 94%   Direction: 210°SSW
Pressure: 30.09"   Gusts: NA
Location:  41.97°N, 2.79°E
Report Text: LEGE 211730Z 21003KT 9999 FEW020 15/14 Q1019
Loading
Personal Weather Stations






























Interactive Weather Map New forecast layout! Learn more

10-Day Weather Forecast

Advertisements
Track Severe Weather on mobile